sensor_id;sensor_type;location;lat;lon;timestamp;pressure;altitude;pressure_sealevel;temperature;humidity
51468;BME280;37545;45.302;-122.946;2023-04-04T00:01:58;101263.06;;;11.64;56.08
51468;BME280;37545;45.302;-122.946;2023-04-04T00:04:27;101260.03;;;11.77;56.38
51468;BME280;37545;45.302;-122.946;2023-04-04T00:06:55;101271.16;;;11.99;56.27
51468;BME280;37545;45.302;-122.946;2023-04-04T00:09:24;101274.25;;;12.14;52.95
51468;BME280;37545;45.302;-122.946;2023-04-04T00:11:54;101267.63;;;12.25;49.46
51468;BME280;37545;45.302;-122.946;2023-04-04T00:14:23;101261.00;;;12.33;49.61
51468;BME280;37545;45.302;-122.946;2023-04-04T00:16:52;101261.84;;;12.34;46.48
51468;BME280;37545;45.302;-122.946;2023-04-04T00:19:20;101272.09;;;12.29;48.01
51468;BME280;37545;45.302;-122.946;2023-04-04T00:21:50;101281.22;;;12.17;45.89
51468;BME280;37545;45.302;-122.946;2023-04-04T00:24:18;101283.41;;;12.03;45.66
51468;BME280;37545;45.302;-122.946;2023-04-04T00:26:47;101281.91;;;11.85;45.97
51468;BME280;37545;45.302;-122.946;2023-04-04T00:29:17;101282.25;;;11.69;46.05
51468;BME280;37545;45.302;-122.946;2023-04-04T00:31:52;101282.72;;;11.57;46.90
51468;BME280;37545;45.302;-122.946;2023-04-04T00:34:29;101275.81;;;11.58;45.62
51468;BME280;37545;45.302;-122.946;2023-04-04T00:36:57;101281.94;;;11.60;43.84
51468;BME280;37545;45.302;-122.946;2023-04-04T00:39:26;101281.22;;;11.64;45.24
51468;BME280;37545;45.302;-122.946;2023-04-04T00:41:54;101275.28;;;11.68;44.14
51468;BME280;37545;45.302;-122.946;2023-04-04T00:44:24;101286.81;;;11.76;46.26
51468;BME280;37545;45.302;-122.946;2023-04-04T00:46:53;101287.75;;;11.78;43.19
51468;BME280;37545;45.302;-122.946;2023-04-04T00:49:22;101287.66;;;11.75;42.58
51468;BME280;37545;45.302;-122.946;2023-04-04T00:51:50;101286.72;;;11.73;43.70
51468;BME280;37545;45.302;-122.946;2023-04-04T00:54:19;101285.00;;;11.73;43.05
51468;BME280;37545;45.302;-122.946;2023-04-04T00:56:48;101292.72;;;11.72;44.49
51468;BME280;37545;45.302;-122.946;2023-04-04T00:59:20;101293.66;;;11.74;45.76
51468;BME280;37545;45.302;-122.946;2023-04-04T01:01:51;101293.59;;;11.72;41.26
51468;BME280;37545;45.302;-122.946;2023-04-04T01:04:19;101296.16;;;11.71;41.92
51468;BME280;37545;45.302;-122.946;2023-04-04T01:06:48;101290.91;;;11.69;43.20
51468;BME280;37545;45.302;-122.946;2023-04-04T01:09:18;101292.50;;;11.66;42.13
51468;BME280;37545;45.302;-122.946;2023-04-04T01:11:46;101295.94;;;11.65;43.54
51468;BME280;37545;45.302;-122.946;2023-04-04T01:14:15;101298.53;;;11.65;42.68
51468;BME280;37545;45.302;-122.946;2023-04-04T01:16:44;101286.28;;;11.61;43.79
51468;BME280;37545;45.302;-122.946;2023-04-04T01:19:21;101294.75;;;11.55;45.20
51468;BME280;37545;45.302;-122.946;2023-04-04T01:21:52;101291.88;;;11.47;44.99
51468;BME280;37545;45.302;-122.946;2023-04-04T01:24:21;101296.88;;;11.41;44.14
51468;BME280;37545;45.302;-122.946;2023-04-04T01:26:52;101285.13;;;11.27;45.80
51468;BME280;37545;45.302;-122.946;2023-04-04T01:29:21;101298.19;;;11.30;44.62
51468;BME280;37545;45.302;-122.946;2023-04-04T01:31:54;101297.00;;;11.20;44.08
51468;BME280;37545;45.302;-122.946;2023-04-04T01:34:28;101304.31;;;11.08;45.88
51468;BME280;37545;45.302;-122.946;2023-04-04T01:37:03;101308.88;;;10.91;46.23
51468;BME280;37545;45.302;-122.946;2023-04-04T01:39:39;101315.13;;;10.74;47.93
51468;BME280;37545;45.302;-122.946;2023-04-04T01:42:12;101319.84;;;10.61;46.51
51468;BME280;37545;45.302;-122.946;2023-04-04T01:44:41;101319.25;;;10.46;46.00
51468;BME280;37545;45.302;-122.946;2023-04-04T01:47:12;101314.41;;;10.33;47.11
51468;BME280;37545;45.302;-122.946;2023-04-04T01:49:40;101314.00;;;10.23;46.94
51468;BME280;37545;45.302;-122.946;2023-04-04T01:52:09;101312.00;;;10.16;47.23
51468;BME280;37545;45.302;-122.946;2023-04-04T01:54:38;101312.50;;;10.07;47.82
51468;BME280;37545;45.302;-122.946;2023-04-04T01:57:07;101307.91;;;10.00;48.13
51468;BME280;37545;45.302;-122.946;2023-04-04T01:59:37;101310.28;;;9.94;49.50
51468;BME280;37545;45.302;-122.946;2023-04-04T02:02:05;101316.06;;;9.89;49.35
51468;BME280;37545;45.302;-122.946;2023-04-04T02:04:34;101317.66;;;9.85;49.10
51468;BME280;37545;45.302;-122.946;2023-04-04T02:07:03;101318.34;;;9.81;48.29
51468;BME280;37545;45.302;-122.946;2023-04-04T02:09:32;101308.69;;;9.77;50.11
51468;BME280;37545;45.302;-122.946;2023-04-04T02:12:00;101317.00;;;9.70;49.79
51468;BME280;37545;45.302;-122.946;2023-04-04T02:14:29;101323.69;;;9.64;48.94
51468;BME280;37545;45.302;-122.946;2023-04-04T02:16:59;101324.38;;;9.60;50.77
51468;BME280;37545;45.302;-122.946;2023-04-04T02:19:28;101319.88;;;9.56;49.58
51468;BME280;37545;45.302;-122.946;2023-04-04T02:21:57;101322.41;;;9.55;49.94
51468;BME280;37545;45.302;-122.946;2023-04-04T02:24:26;101322.28;;;9.52;50.75
51468;BME280;37545;45.302;-122.946;2023-04-04T02:26:54;101322.91;;;9.46;49.74
51468;BME280;37545;45.302;-122.946;2023-04-04T02:29:23;101322.72;;;9.41;49.00
51468;BME280;37545;45.302;-122.946;2023-04-04T02:31:51;101325.03;;;9.35;50.56
51468;BME280;37545;45.302;-122.946;2023-04-04T02:34:22;101327.47;;;9.32;52.00
51468;BME280;37545;45.302;-122.946;2023-04-04T02:36:50;101329.16;;;9.32;51.66
51468;BME280;37545;45.302;-122.946;2023-04-04T02:39:19;101332.41;;;9.28;52.26
51468;BME280;37545;45.302;-122.946;2023-04-04T02:41:47;101334.75;;;9.21;52.64
51468;BME280;37545;45.302;-122.946;2023-04-04T02:44:16;101332.75;;;9.16;52.26
51468;BME280;37545;45.302;-122.946;2023-04-04T02:46:45;101335.22;;;9.13;52.97
51468;BME280;37545;45.302;-122.946;2023-04-04T02:49:13;101336.75;;;9.09;53.36
51468;BME280;37545;45.302;-122.946;2023-04-04T02:51:44;101347.59;;;9.00;53.61
51468;BME280;37545;45.302;-122.946;2023-04-04T02:54:13;101348.03;;;8.92;54.57
51468;BME280;37545;45.302;-122.946;2023-04-04T02:56:41;101352.16;;;8.88;55.65
51468;BME280;37545;45.302;-122.946;2023-04-04T02:59:10;101351.91;;;8.82;55.79
51468;BME280;37545;45.302;-122.946;2023-04-04T03:01:38;101354.97;;;8.75;55.61
51468;BME280;37545;45.302;-122.946;2023-04-04T03:04:07;101348.53;;;8.65;56.04
51468;BME280;37545;45.302;-122.946;2023-04-04T03:06:36;101370.03;;;8.66;55.50
51468;BME280;37545;45.302;-122.946;2023-04-04T03:09:07;101367.19;;;8.59;55.84
51468;BME280;37545;45.302;-122.946;2023-04-04T03:11:36;101381.72;;;8.57;56.40
51468;BME280;37545;45.302;-122.946;2023-04-04T03:14:04;101381.56;;;8.54;55.80
51468;BME280;37545;45.302;-122.946;2023-04-04T03:16:33;101385.69;;;8.51;55.49
51468;BME280;37545;45.302;-122.946;2023-04-04T03:19:02;101388.91;;;8.47;56.58
51468;BME280;37545;45.302;-122.946;2023-04-04T03:21:30;101396.56;;;8.45;55.84
51468;BME280;37545;45.302;-122.946;2023-04-04T03:23:59;101376.22;;;8.33;56.28
51468;BME280;37545;45.302;-122.946;2023-04-04T03:26:29;101411.91;;;8.42;55.11
51468;BME280;37545;45.302;-122.946;2023-04-04T03:28:58;101410.94;;;8.40;55.38
51468;BME280;37545;45.302;-122.946;2023-04-04T03:31:32;101410.78;;;8.37;55.58
51468;BME280;37545;45.302;-122.946;2023-04-04T03:34:01;101400.66;;;8.24;57.37
51468;BME280;37545;45.302;-122.946;2023-04-04T03:36:30;101407.88;;;8.31;56.65
51468;BME280;37545;45.302;-122.946;2023-04-04T03:39:04;101420.78;;;8.31;57.89
51468;BME280;37545;45.302;-122.946;2023-04-04T03:41:35;101415.41;;;8.26;58.02
51468;BME280;37545;45.302;-122.946;2023-04-04T03:44:03;101427.41;;;8.26;58.97
51468;BME280;37545;45.302;-122.946;2023-04-04T03:46:32;101419.38;;;8.19;59.62
51468;BME280;37545;45.302;-122.946;2023-04-04T03:49:01;101422.63;;;8.15;58.92
51468;BME280;37545;45.302;-122.946;2023-04-04T03:51:29;101426.81;;;8.13;60.01
51468;BME280;37545;45.302;-122.946;2023-04-04T03:53:58;101433.59;;;8.11;62.21
51468;BME280;37545;45.302;-122.946;2023-04-04T03:56:26;101434.38;;;8.10;61.99
51468;BME280;37545;45.302;-122.946;2023-04-04T03:58:57;101429.88;;;8.06;61.96
51468;BME280;37545;45.302;-122.946;2023-04-04T04:01:25;101434.97;;;8.05;62.47
51468;BME280;37545;45.302;-122.946;2023-04-04T04:03:54;101429.63;;;8.02;62.26
51468;BME280;37545;45.302;-122.946;2023-04-04T04:06:23;101437.06;;;7.95;61.84
51468;BME280;37545;45.302;-122.946;2023-04-04T04:08:51;101446.28;;;7.90;62.22
51468;BME280;37545;45.302;-122.946;2023-04-04T04:11:21;101449.53;;;7.88;62.40
51468;BME280;37545;45.302;-122.946;2023-04-04T04:13:50;101448.59;;;7.86;62.85
51468;BME280;37545;45.302;-122.946;2023-04-04T04:16:20;101457.84;;;7.82;61.94
51468;BME280;37545;45.302;-122.946;2023-04-04T04:18:49;101454.72;;;7.71;62.76
51468;BME280;37545;45.302;-122.946;2023-04-04T04:21:17;101469.19;;;7.69;63.75
51468;BME280;37545;45.302;-122.946;2023-04-04T04:23:46;101466.47;;;7.66;64.13
51468;BME280;37545;45.302;-122.946;2023-04-04T04:26:14;101479.25;;;7.65;63.43
51468;BME280;37545;45.302;-122.946;2023-04-04T04:28:43;101477.34;;;7.61;63.42
51468;BME280;37545;45.302;-122.946;2023-04-04T04:31:13;101479.03;;;7.60;63.96
51468;BME280;37545;45.302;-122.946;2023-04-04T04:33:43;101486.75;;;7.60;63.31
51468;BME280;37545;45.302;-122.946;2023-04-04T04:36:12;101490.91;;;7.58;64.84
51468;BME280;37545;45.302;-122.946;2023-04-04T04:38:41;101489.06;;;7.55;65.84
51468;BME280;37545;45.302;-122.946;2023-04-04T04:41:09;101491.41;;;7.51;65.81
51468;BME280;37545;45.302;-122.946;2023-04-04T04:43:38;101486.19;;;7.49;65.64
51468;BME280;37545;45.302;-122.946;2023-04-04T04:46:06;101487.72;;;7.46;65.82
51468;BME280;37545;45.302;-122.946;2023-04-04T04:48:35;101479.00;;;7.44;65.70
51468;BME280;37545;45.302;-122.946;2023-04-04T04:51:05;101490.03;;;7.41;64.94
51468;BME280;37545;45.302;-122.946;2023-04-04T04:53:34;101481.34;;;7.39;65.84
51468;BME280;37545;45.302;-122.946;2023-04-04T04:56:02;101479.41;;;7.35;66.63
51468;BME280;37545;45.302;-122.946;2023-04-04T04:58:31;101487.69;;;7.29;66.80
51468;BME280;37545;45.302;-122.946;2023-04-04T05:01:00;101486.63;;;7.26;67.02
51468;BME280;37545;45.302;-122.946;2023-04-04T05:03:29;101495.06;;;7.23;66.71
51468;BME280;37545;45.302;-122.946;2023-04-04T05:05:57;101495.06;;;7.23;67.24
51468;BME280;37545;45.302;-122.946;2023-04-04T05:08:27;101495.78;;;7.21;66.94
51468;BME280;37545;45.302;-122.946;2023-04-04T05:10:56;101492.25;;;7.19;68.38
51468;BME280;37545;45.302;-122.946;2023-04-04T05:13:25;101490.75;;;7.07;71.91
51468;BME280;37545;45.302;-122.946;2023-04-04T05:15:53;101493.88;;;7.02;72.50
51468;BME280;37545;45.302;-122.946;2023-04-04T05:18:22;101491.78;;;6.95;74.12
51468;BME280;37545;45.302;-122.946;2023-04-04T05:20:52;101483.44;;;6.84;74.08
51468;BME280;37545;45.302;-122.946;2023-04-04T05:23:21;101496.94;;;6.80;75.39
51468;BME280;37545;45.302;-122.946;2023-04-04T05:25:51;101504.84;;;6.68;75.51
51468;BME280;37545;45.302;-122.946;2023-04-04T05:28:20;101503.81;;;6.64;73.79
51468;BME280;37545;45.302;-122.946;2023-04-04T05:30:49;101502.28;;;6.53;76.84
51468;BME280;37545;45.302;-122.946;2023-04-04T05:33:17;101495.81;;;6.45;79.12
51468;BME280;37545;45.302;-122.946;2023-04-04T05:35:46;101495.53;;;6.40;78.53
51468;BME280;37545;45.302;-122.946;2023-04-04T05:38:14;101502.09;;;6.35;78.46
51468;BME280;37545;45.302;-122.946;2023-04-04T05:40:43;101488.63;;;6.24;79.57
51468;BME280;37545;45.302;-122.946;2023-04-04T05:43:13;101478.50;;;6.13;80.12
51468;BME280;37545;45.302;-122.946;2023-04-04T05:45:42;101499.44;;;6.19;78.64
51468;BME280;37545;45.302;-122.946;2023-04-04T05:48:10;101511.91;;;6.13;78.68
51468;BME280;37545;45.302;-122.946;2023-04-04T05:50:39;101507.38;;;6.08;78.61
51468;BME280;37545;45.302;-122.946;2023-04-04T05:53:08;101508.00;;;6.04;78.30
51468;BME280;37545;45.302;-122.946;2023-04-04T05:55:36;101519.78;;;6.01;78.07
51468;BME280;37545;45.302;-122.946;2023-04-04T05:58:05;101525.63;;;5.98;78.44
51468;BME280;37545;45.302;-122.946;2023-04-04T06:00:35;101521.66;;;5.90;77.87
51468;BME280;37545;45.302;-122.946;2023-04-04T06:03:04;101518.44;;;5.79;78.31
51468;BME280;37545;45.302;-122.946;2023-04-04T06:05:32;101507.25;;;5.64;79.11
51468;BME280;37545;45.302;-122.946;2023-04-04T06:08:01;101511.47;;;5.63;79.89
51468;BME280;37545;45.302;-122.946;2023-04-04T06:10:29;101517.03;;;5.56;82.00
51468;BME280;37545;45.302;-122.946;2023-04-04T06:12:58;101520.72;;;5.46;84.61
51468;BME280;37545;45.302;-122.946;2023-04-04T06:15:26;101501.09;;;5.34;85.12
51468;BME280;37545;45.302;-122.946;2023-04-04T06:17:57;101512.81;;;5.43;85.43
51468;BME280;37545;45.302;-122.946;2023-04-04T06:20:25;101511.56;;;5.37;85.06
51468;BME280;37545;45.302;-122.946;2023-04-04T06:22:54;101519.38;;;5.25;85.31
51468;BME280;37545;45.302;-122.946;2023-04-04T06:25:22;101520.56;;;5.17;86.00
51468;BME280;37545;45.302;-122.946;2023-04-04T06:27:52;101522.06;;;5.13;86.87
51468;BME280;37545;45.302;-122.946;2023-04-04T06:30:20;101529.13;;;5.17;86.88
51468;BME280;37545;45.302;-122.946;2023-04-04T06:32:49;101520.75;;;5.20;87.34
51468;BME280;37545;45.302;-122.946;2023-04-04T06:35:19;101532.91;;;5.22;87.72
51468;BME280;37545;45.302;-122.946;2023-04-04T06:37:53;101519.09;;;5.20;87.95
51468;BME280;37545;45.302;-122.946;2023-04-04T06:40:22;101528.53;;;5.21;87.43
51468;BME280;37545;45.302;-122.946;2023-04-04T06:42:51;101516.41;;;5.19;87.65
51468;BME280;37545;45.302;-122.946;2023-04-04T06:45:23;101524.22;;;5.20;88.27
51468;BME280;37545;45.302;-122.946;2023-04-04T06:47:53;101527.78;;;5.22;88.53
51468;BME280;37545;45.302;-122.946;2023-04-04T06:50:23;101529.53;;;5.23;88.69
51468;BME280;37545;45.302;-122.946;2023-04-04T06:52:52;101533.78;;;5.23;88.74
51468;BME280;37545;45.302;-122.946;2023-04-04T06:55:22;101529.63;;;5.25;89.51
51468;BME280;37545;45.302;-122.946;2023-04-04T06:57:51;101532.91;;;5.22;88.88
51468;BME280;37545;45.302;-122.946;2023-04-04T07:00:20;101528.75;;;5.24;88.90
51468;BME280;37545;45.302;-122.946;2023-04-04T07:02:48;101538.41;;;5.29;88.16
51468;BME280;37545;45.302;-122.946;2023-04-04T07:05:17;101530.81;;;5.30;87.41
51468;BME280;37545;45.302;-122.946;2023-04-04T07:07:51;101534.19;;;5.29;87.50
51468;BME280;37545;45.302;-122.946;2023-04-04T07:10:20;101531.50;;;5.28;87.40
51468;BME280;37545;45.302;-122.946;2023-04-04T07:12:48;101531.41;;;5.26;87.42
51468;BME280;37545;45.302;-122.946;2023-04-04T07:15:17;101543.53;;;5.29;87.78
51468;BME280;37545;45.302;-122.946;2023-04-04T07:17:45;101546.09;;;5.29;88.13
51468;BME280;37545;45.302;-122.946;2023-04-04T07:20:14;101546.19;;;5.30;88.25
51468;BME280;37545;45.302;-122.946;2023-04-04T07:22:42;101543.75;;;5.32;88.27
51468;BME280;37545;45.302;-122.946;2023-04-04T07:25:13;101536.81;;;5.31;88.23
51468;BME280;37545;45.302;-122.946;2023-04-04T07:27:41;101536.81;;;5.31;87.87
51468;BME280;37545;45.302;-122.946;2023-04-04T07:30:11;101545.31;;;5.30;88.24
51468;BME280;37545;45.302;-122.946;2023-04-04T07:32:40;101552.91;;;5.28;89.16
51468;BME280;37545;45.302;-122.946;2023-04-04T07:35:09;101550.34;;;5.28;89.67
51468;BME280;37545;45.302;-122.946;2023-04-04T07:37:37;101549.34;;;5.26;89.52
51468;BME280;37545;45.302;-122.946;2023-04-04T07:40:07;101550.47;;;5.30;89.30
51468;BME280;37545;45.302;-122.946;2023-04-04T07:42:42;101552.22;;;5.31;88.92
51468;BME280;37545;45.302;-122.946;2023-04-04T07:45:12;101550.25;;;5.27;89.44
51468;BME280;37545;45.302;-122.946;2023-04-04T07:47:42;101548.66;;;5.29;89.73
51468;BME280;37545;45.302;-122.946;2023-04-04T07:50:12;101557.16;;;5.28;90.37
51468;BME280;37545;45.302;-122.946;2023-04-04T07:52:40;101554.78;;;5.31;91.06
51468;BME280;37545;45.302;-122.946;2023-04-04T07:55:09;101542.16;;;5.34;91.28
51468;BME280;37545;45.302;-122.946;2023-04-04T07:57:39;101542.34;;;5.37;91.75
51468;BME280;37545;45.302;-122.946;2023-04-04T08:00:09;101540.38;;;5.33;93.10
51468;BME280;37545;45.302;-122.946;2023-04-04T08:02:38;101533.09;;;5.25;94.25
51468;BME280;37545;45.302;-122.946;2023-04-04T08:05:08;101532.28;;;5.27;94.86
51468;BME280;37545;45.302;-122.946;2023-04-04T08:07:36;101542.16;;;5.34;93.84
51468;BME280;37545;45.302;-122.946;2023-04-04T08:10:06;101542.16;;;5.34;92.85
51468;BME280;37545;45.302;-122.946;2023-04-04T08:12:35;101538.41;;;5.29;92.01
51468;BME280;37545;45.302;-122.946;2023-04-04T08:15:06;101544.63;;;5.32;91.66
51468;BME280;37545;45.302;-122.946;2023-04-04T08:17:35;101533.47;;;5.32;91.41
51468;BME280;37545;45.302;-122.946;2023-04-04T08:20:05;101531.09;;;5.21;91.09
51468;BME280;37545;45.302;-122.946;2023-04-04T08:22:34;101541.78;;;5.14;91.36
51468;BME280;37545;45.302;-122.946;2023-04-04T08:25:03;101540.59;;;5.09;91.58
51468;BME280;37545;45.302;-122.946;2023-04-04T08:27:31;101542.19;;;5.07;92.36
51468;BME280;37545;45.302;-122.946;2023-04-04T08:30:00;101537.81;;;5.06;92.35
51468;BME280;37545;45.302;-122.946;2023-04-04T08:32:31;101521.25;;;5.01;92.55
51468;BME280;37545;45.302;-122.946;2023-04-04T08:35:00;101532.09;;;5.10;92.40
51468;BME280;37545;45.302;-122.946;2023-04-04T08:37:28;101531.03;;;5.07;93.99
51468;BME280;37545;45.302;-122.946;2023-04-04T08:39:57;101535.94;;;5.03;94.48
51468;BME280;37545;45.302;-122.946;2023-04-04T08:42:27;101532.50;;;5.03;95.42
51468;BME280;37545;45.302;-122.946;2023-04-04T08:44:56;101533.31;;;5.02;94.33
51468;BME280;37545;45.302;-122.946;2023-04-04T08:47:28;101531.31;;;4.98;94.51
51468;BME280;37545;45.302;-122.946;2023-04-04T08:50:03;101522.47;;;4.93;94.41
51468;BME280;37545;45.302;-122.946;2023-04-04T08:52:32;101517.09;;;4.90;94.74
51468;BME280;37545;45.302;-122.946;2023-04-04T08:55:04;101522.34;;;4.91;95.90
51468;BME280;37545;45.302;-122.946;2023-04-04T08:57:33;101519.28;;;4.83;96.46
51468;BME280;37545;45.302;-122.946;2023-04-04T09:00:03;101504.91;;;4.72;96.77
51468;BME280;37545;45.302;-122.946;2023-04-04T09:02:35;101511.78;;;4.73;96.70
51468;BME280;37545;45.302;-122.946;2023-04-04T09:05:07;101521.94;;;4.72;96.52
51468;BME280;37545;45.302;-122.946;2023-04-04T09:07:36;101520.16;;;4.71;95.88
51468;BME280;37545;45.302;-122.946;2023-04-04T09:10:07;101521.03;;;4.71;95.54
51468;BME280;37545;45.302;-122.946;2023-04-04T09:12:38;101511.47;;;4.69;95.90
51468;BME280;37545;45.302;-122.946;2023-04-04T09:15:10;101506.84;;;4.63;96.57
51468;BME280;37545;45.302;-122.946;2023-04-04T09:17:39;101513.13;;;4.55;97.20
51468;BME280;37545;45.302;-122.946;2023-04-04T09:20:39;101518.28;;;4.55;97.32
51468;BME280;37545;45.302;-122.946;2023-04-04T09:23:08;101506.34;;;4.55;96.83
51468;BME280;37545;45.302;-122.946;2023-04-04T09:25:42;101503.47;;;4.51;96.60
51468;BME280;37545;45.302;-122.946;2023-04-04T09:28:13;101509.41;;;4.50;97.17
51468;BME280;37545;45.302;-122.946;2023-04-04T09:30:42;101512.66;;;4.47;96.38
51468;BME280;37545;45.302;-122.946;2023-04-04T09:33:12;101513.41;;;4.46;95.99
51468;BME280;37545;45.302;-122.946;2023-04-04T09:35:46;101513.13;;;4.41;95.74
51468;BME280;37545;45.302;-122.946;2023-04-04T09:38:18;101517.06;;;4.36;96.39
51468;BME280;37545;45.302;-122.946;2023-04-04T09:40:48;101514.38;;;4.35;96.81
51468;BME280;37545;45.302;-122.946;2023-04-04T09:43:18;101516.84;;;4.33;97.51
51468;BME280;37545;45.302;-122.946;2023-04-04T09:45:48;101514.97;;;4.31;97.03
51468;BME280;37545;45.302;-122.946;2023-04-04T09:48:29;101507.31;;;4.31;97.46
51468;BME280;37545;45.302;-122.946;2023-04-04T09:50:59;101506.00;;;4.24;96.79
51468;BME280;37545;45.302;-122.946;2023-04-04T09:53:33;101500.88;;;4.24;97.54
51468;BME280;37545;45.302;-122.946;2023-04-04T09:56:04;101501.13;;;4.15;98.60
51468;BME280;37545;45.302;-122.946;2023-04-04T09:58:33;101497.28;;;4.09;100.00
51468;BME280;37545;45.302;-122.946;2023-04-04T10:01:06;101494.72;;;4.09;100.00
51468;BME280;37545;45.302;-122.946;2023-04-04T10:03:36;101496.97;;;4.04;100.00
51468;BME280;37545;45.302;-122.946;2023-04-04T10:06:07;101491.34;;;3.96;100.00
51468;BME280;37545;45.302;-122.946;2023-04-04T10:08:38;101506.09;;;4.01;100.00
51468;BME280;37545;45.302;-122.946;2023-04-04T10:11:09;101507.91;;;4.02;100.00
51468;BME280;37545;45.302;-122.946;2023-04-04T10:13:38;101508.66;;;4.01;100.00
51468;BME280;37545;45.302;-122.946;2023-04-04T10:16:09;101497.66;;;4.02;100.00
51468;BME280;37545;45.302;-122.946;2023-04-04T10:18:38;101495.84;;;4.01;100.00
51468;BME280;37545;45.302;-122.946;2023-04-04T10:21:08;101492.31;;;3.98;100.00
51468;BME280;37545;45.302;-122.946;2023-04-04T10:23:37;101475.25;;;3.86;100.00
51468;BME280;37545;45.302;-122.946;2023-04-04T10:26:05;101474.56;;;3.88;100.00
51468;BME280;37545;45.302;-122.946;2023-04-04T10:28:34;101491.34;;;3.96;100.00
51468;BME280;37545;45.302;-122.946;2023-04-04T10:31:07;101494.47;;;3.92;100.00
51468;BME280;37545;45.302;-122.946;2023-04-04T10:33:43;101494.53;;;3.94;100.00
51468;BME280;37545;45.302;-122.946;2023-04-04T10:36:20;101498.09;;;3.96;100.00
51468;BME280;37545;45.302;-122.946;2023-04-04T10:38:57;101497.22;;;3.95;100.00
51468;BME280;37545;45.302;-122.946;2023-04-04T10:41:31;101489.75;;;3.98;100.00
51468;BME280;37545;45.302;-122.946;2023-04-04T10:44:05;101499.63;;;4.06;100.00
51468;BME280;37545;45.302;-122.946;2023-04-04T10:46:38;101491.34;;;4.10;100.00
51468;BME280;37545;45.302;-122.946;2023-04-04T10:49:09;101492.47;;;4.13;100.00
51468;BME280;37545;45.302;-122.946;2023-04-04T10:51:41;101493.25;;;4.12;100.00
51468;BME280;37545;45.302;-122.946;2023-04-04T10:54:11;101493.91;;;4.10;100.00
51468;BME280;37545;45.302;-122.946;2023-04-04T10:56:41;101497.16;;;4.07;100.00
51468;BME280;37545;45.302;-122.946;2023-04-04T10:59:12;101489.16;;;4.03;100.00
51468;BME280;37545;45.302;-122.946;2023-04-04T11:01:54;101495.97;;;4.02;100.00
51468;BME280;37545;45.302;-122.946;2023-04-04T11:04:30;101492.53;;;4.02;100.00
51468;BME280;37545;45.302;-122.946;2023-04-04T11:07:11;101489.59;;;4.09;100.00
51468;BME280;37545;45.302;-122.946;2023-04-04T11:09:51;101484.59;;;4.10;100.00
51468;BME280;37545;45.302;-122.946;2023-04-04T11:12:28;101487.16;;;4.10;100.00
51468;BME280;37545;45.302;-122.946;2023-04-04T11:15:08;101485.28;;;4.08;100.00
51468;BME280;37545;45.302;-122.946;2023-04-04T11:17:50;101495.31;;;4.18;100.00
51468;BME280;37545;45.302;-122.946;2023-04-04T11:20:20;101497.31;;;4.22;100.00
51468;BME280;37545;45.302;-122.946;2023-04-04T11:23:01;101498.19;;;4.23;100.00
51468;BME280;37545;45.302;-122.946;2023-04-04T11:25:35;101502.44;;;4.22;100.00
51468;BME280;37545;45.302;-122.946;2023-04-04T11:28:06;101497.31;;;4.22;100.00
51468;BME280;37545;45.302;-122.946;2023-04-04T11:30:39;101491.31;;;4.22;100.00
51468;BME280;37545;45.302;-122.946;2023-04-04T11:33:11;101495.63;;;4.23;100.00
51468;BME280;37545;45.302;-122.946;2023-04-04T11:35:45;101493.97;;;4.23;100.00
51468;BME280;37545;45.302;-122.946;2023-04-04T11:38:16;101494.75;;;4.22;100.00
51468;BME280;37545;45.302;-122.946;2023-04-04T11:40:52;101493.06;;;4.23;100.00
51468;BME280;37545;45.302;-122.946;2023-04-04T11:43:21;101490.41;;;4.21;100.00
51468;BME280;37545;45.302;-122.946;2023-04-04T11:45:51;101484.41;;;4.20;100.00
51468;BME280;37545;45.302;-122.946;2023-04-04T11:48:22;101485.28;;;4.21;100.00
51468;BME280;37545;45.302;-122.946;2023-04-04T11:50:52;101471.41;;;4.17;100.00
51468;BME280;37545;45.302;-122.946;2023-04-04T11:53:22;101482.16;;;4.25;100.00
51468;BME280;37545;45.302;-122.946;2023-04-04T11:55:52;101483.13;;;4.27;100.00
51468;BME280;37545;45.302;-122.946;2023-04-04T11:58:21;101481.38;;;4.26;100.00
51468;BME280;37545;45.302;-122.946;2023-04-04T12:00:50;101483.03;;;4.26;100.00
51468;BME280;37545;45.302;-122.946;2023-04-04T12:03:19;101471.91;;;4.25;100.00
51468;BME280;37545;45.302;-122.946;2023-04-04T12:05:49;101476.56;;;4.31;100.00
51468;BME280;37545;45.302;-122.946;2023-04-04T12:08:18;101481.88;;;4.34;100.00
51468;BME280;37545;45.302;-122.946;2023-04-04T12:10:51;101477.81;;;4.37;100.00
51468;BME280;37545;45.302;-122.946;2023-04-04T12:13:19;101472.13;;;4.41;100.00
51468;BME280;37545;45.302;-122.946;2023-04-04T12:15:48;101478.22;;;4.44;100.00
51468;BME280;37545;45.302;-122.946;2023-04-04T12:18:20;101481.09;;;4.48;100.00
51468;BME280;37545;45.302;-122.946;2023-04-04T12:20:50;101477.06;;;4.52;100.00
51468;BME280;37545;45.302;-122.946;2023-04-04T12:23:19;101480.41;;;4.51;100.00
51468;BME280;37545;45.302;-122.946;2023-04-04T12:25:48;101476.97;;;4.50;100.00
51468;BME280;37545;45.302;-122.946;2023-04-04T12:28:22;101484.84;;;4.53;100.00
51468;BME280;37545;45.302;-122.946;2023-04-04T12:30:51;101482.97;;;4.51;100.00
51468;BME280;37545;45.302;-122.946;2023-04-04T12:33:20;101475.09;;;4.48;100.00
51468;BME280;37545;45.302;-122.946;2023-04-04T12:35:53;101471.53;;;4.46;100.00
51468;BME280;37545;45.302;-122.946;2023-04-04T12:38:28;101473.78;;;4.41;100.00
51468;BME280;37545;45.302;-122.946;2023-04-04T12:40:57;101475.94;;;4.35;100.00